sensor_id;sensor_type;location;lat;lon;timestamp;pressure;altitude;pressure_sealevel;temperature;humidity
23867;BME280;12114;53.404;-1.502;2023-09-30T00:00:45;101533.56;;;13.35;100.00
23867;BME280;12114;53.404;-1.502;2023-09-30T00:03:29;101537.06;;;13.32;100.00
23867;BME280;12114;53.404;-1.502;2023-09-30T00:06:13;101536.72;;;13.34;100.00
23867;BME280;12114;53.404;-1.502;2023-09-30T00:08:57;101538.84;;;13.25;100.00
23867;BME280;12114;53.404;-1.502;2023-09-30T00:11:41;101541.63;;;13.25;100.00
23867;BME280;12114;53.404;-1.502;2023-09-30T00:14:25;101523.69;;;13.26;100.00
23867;BME280;12114;53.404;-1.502;2023-09-30T00:17:09;101534.16;;;13.29;100.00
23867;BME280;12114;53.404;-1.502;2023-09-30T00:19:53;101530.66;;;13.32;100.00
23867;BME280;12114;53.404;-1.502;2023-09-30T00:22:37;101525.31;;;13.39;100.00
23867;BME280;12114;53.404;-1.502;2023-09-30T00:25:21;101520.91;;;13.38;100.00
23867;BME280;12114;53.404;-1.502;2023-09-30T00:28:05;101529.38;;;13.41;100.00
23867;BME280;12114;53.404;-1.502;2023-09-30T00:30:49;101531.72;;;13.39;100.00
23867;BME280;12114;53.404;-1.502;2023-09-30T00:33:33;101526.97;;;13.40;100.00
23867;BME280;12114;53.404;-1.502;2023-09-30T00:36:17;101539.84;;;13.44;100.00
23867;BME280;12114;53.404;-1.502;2023-09-30T00:39:01;101550.44;;;13.39;100.00
23867;BME280;12114;53.404;-1.502;2023-09-30T00:41:46;101548.47;;;13.39;100.00
23867;BME280;12114;53.404;-1.502;2023-09-30T00:44:30;101558.13;;;13.42;100.00
23867;BME280;12114;53.404;-1.502;2023-09-30T00:47:15;101548.81;;;13.38;100.00
23867;BME280;12114;53.404;-1.502;2023-09-30T00:49:59;101558.56;;;13.44;100.00
23867;BME280;12114;53.404;-1.502;2023-09-30T00:52:45;101565.53;;;13.50;100.00
23867;BME280;12114;53.404;-1.502;2023-09-30T00:55:29;101565.47;;;13.46;100.00
23867;BME280;12114;53.404;-1.502;2023-09-30T00:58:14;101575.00;;;13.45;100.00
23867;BME280;12114;53.404;-1.502;2023-09-30T01:00:59;101568.00;;;13.39;100.00
23867;BME280;12114;53.404;-1.502;2023-09-30T01:03:43;101572.44;;;13.28;100.00
23867;BME280;12114;53.404;-1.502;2023-09-30T01:06:27;101555.09;;;13.23;100.00
23867;BME280;12114;53.404;-1.502;2023-09-30T01:09:11;101557.56;;;13.24;100.00
23867;BME280;12114;53.404;-1.502;2023-09-30T01:11:56;101568.16;;;13.19;100.00
23867;BME280;12114;53.404;-1.502;2023-09-30T01:14:40;101568.03;;;13.15;100.00
23867;BME280;12114;53.404;-1.502;2023-09-30T01:17:26;101561.97;;;13.13;100.00
23867;BME280;12114;53.404;-1.502;2023-09-30T01:20:14;101555.47;;;13.21;100.00
23867;BME280;12114;53.404;-1.502;2023-09-30T01:23:05;101546.50;;;13.16;100.00
23867;BME280;12114;53.404;-1.502;2023-09-30T01:25:49;101542.91;;;13.15;100.00
23867;BME280;12114;53.404;-1.502;2023-09-30T01:28:33;101536.25;;;13.20;100.00
23867;BME280;12114;53.404;-1.502;2023-09-30T01:31:17;101536.16;;;13.28;100.00
23867;BME280;12114;53.404;-1.502;2023-09-30T01:34:01;101538.00;;;13.36;100.00
23867;BME280;12114;53.404;-1.502;2023-09-30T01:36:45;101533.22;;;13.49;100.00
23867;BME280;12114;53.404;-1.502;2023-09-30T01:39:30;101533.69;;;13.51;100.00
23867;BME280;12114;53.404;-1.502;2023-09-30T01:42:14;101525.75;;;13.53;100.00
23867;BME280;12114;53.404;-1.502;2023-09-30T01:44:58;101527.50;;;13.57;100.00
23867;BME280;12114;53.404;-1.502;2023-09-30T01:47:42;101529.03;;;13.55;100.00
23867;BME280;12114;53.404;-1.502;2023-09-30T01:50:26;101540.91;;;13.52;100.00
23867;BME280;12114;53.404;-1.502;2023-09-30T01:53:10;101544.84;;;13.51;100.00
23867;BME280;12114;53.404;-1.502;2023-09-30T01:55:54;101540.09;;;13.51;100.00
23867;BME280;12114;53.404;-1.502;2023-09-30T01:58:38;101543.56;;;13.48;100.00
23867;BME280;12114;53.404;-1.502;2023-09-30T02:01:22;101534.38;;;13.48;100.00
23867;BME280;12114;53.404;-1.502;2023-09-30T02:04:06;101528.22;;;13.42;100.00
23867;BME280;12114;53.404;-1.502;2023-09-30T02:06:53;101533.38;;;13.40;100.00
23867;BME280;12114;53.404;-1.502;2023-09-30T02:09:37;101529.41;;;13.29;100.00
23867;BME280;12114;53.404;-1.502;2023-09-30T02:12:21;101519.06;;;13.18;100.00
23867;BME280;12114;53.404;-1.502;2023-09-30T02:15:05;101528.84;;;13.11;100.00
23867;BME280;12114;53.404;-1.502;2023-09-30T02:17:51;101525.31;;;13.02;100.00
23867;BME280;12114;53.404;-1.502;2023-09-30T02:20:36;101530.31;;;12.97;100.00
23867;BME280;12114;53.404;-1.502;2023-09-30T02:23:23;101534.81;;;12.89;100.00
23867;BME280;12114;53.404;-1.502;2023-09-30T02:26:08;101530.75;;;12.87;100.00
23867;BME280;12114;53.404;-1.502;2023-09-30T02:28:52;101528.22;;;12.82;100.00
23867;BME280;12114;53.404;-1.502;2023-09-30T02:31:37;101525.31;;;12.78;100.00
23867;BME280;12114;53.404;-1.502;2023-09-30T02:34:21;101532.38;;;12.76;100.00
23867;BME280;12114;53.404;-1.502;2023-09-30T02:37:06;101522.94;;;12.68;100.00
23867;BME280;12114;53.404;-1.502;2023-09-30T02:39:51;101530.88;;;12.66;100.00
23867;BME280;12114;53.404;-1.502;2023-09-30T02:42:39;101532.50;;;12.67;100.00
23867;BME280;12114;53.404;-1.502;2023-09-30T02:45:24;101538.16;;;12.58;100.00
23867;BME280;12114;53.404;-1.502;2023-09-30T02:48:08;101538.06;;;12.55;100.00
23867;BME280;12114;53.404;-1.502;2023-09-30T02:50:52;101548.94;;;12.48;100.00
23867;BME280;12114;53.404;-1.502;2023-09-30T02:53:36;101549.50;;;12.41;100.00
23867;BME280;12114;53.404;-1.502;2023-09-30T02:56:20;101541.50;;;12.40;100.00
23867;BME280;12114;53.404;-1.502;2023-09-30T02:59:04;101547.63;;;12.33;100.00
23867;BME280;12114;53.404;-1.502;2023-09-30T03:01:48;101558.38;;;12.23;100.00
23867;BME280;12114;53.404;-1.502;2023-09-30T03:04:32;101557.78;;;12.17;100.00
23867;BME280;12114;53.404;-1.502;2023-09-30T03:07:20;101555.81;;;12.18;100.00
23867;BME280;12114;53.404;-1.502;2023-09-30T03:10:05;101553.78;;;12.06;100.00
23867;BME280;12114;53.404;-1.502;2023-09-30T03:12:50;101565.47;;;11.99;100.00
23867;BME280;12114;53.404;-1.502;2023-09-30T03:15:37;101560.22;;;11.98;100.00
23867;BME280;12114;53.404;-1.502;2023-09-30T03:18:22;101558.34;;;11.90;100.00
23867;BME280;12114;53.404;-1.502;2023-09-30T03:21:13;101576.84;;;11.94;100.00
23867;BME280;12114;53.404;-1.502;2023-09-30T03:23:58;101569.69;;;11.85;100.00
23867;BME280;12114;53.404;-1.502;2023-09-30T03:26:42;101567.91;;;11.80;100.00
23867;BME280;12114;53.404;-1.502;2023-09-30T03:29:27;101564.31;;;11.80;100.00
23867;BME280;12114;53.404;-1.502;2023-09-30T03:32:11;101569.41;;;11.78;100.00
23867;BME280;12114;53.404;-1.502;2023-09-30T03:34:55;101575.34;;;11.76;100.00
23867;BME280;12114;53.404;-1.502;2023-09-30T03:37:43;101566.50;;;11.74;100.00
23867;BME280;12114;53.404;-1.502;2023-09-30T03:40:28;101565.50;;;11.79;100.00
23867;BME280;12114;53.404;-1.502;2023-09-30T03:43:17;101560.09;;;11.74;100.00
23867;BME280;12114;53.404;-1.502;2023-09-30T03:46:01;101561.59;;;11.71;100.00
23867;BME280;12114;53.404;-1.502;2023-09-30T03:48:45;101567.81;;;11.68;100.00
23867;BME280;12114;53.404;-1.502;2023-09-30T03:51:29;101565.25;;;11.63;100.00
23867;BME280;12114;53.404;-1.502;2023-09-30T03:54:13;101564.94;;;11.56;100.00
23867;BME280;12114;53.404;-1.502;2023-09-30T03:56:57;101567.19;;;11.42;100.00
23867;BME280;12114;53.404;-1.502;2023-09-30T03:59:41;101556.44;;;11.32;100.00
23867;BME280;12114;53.404;-1.502;2023-09-30T04:02:24;101563.47;;;11.29;100.00
23867;BME280;12114;53.404;-1.502;2023-09-30T04:05:09;101564.31;;;11.30;100.00
23867;BME280;12114;53.404;-1.502;2023-09-30T04:07:58;101572.81;;;11.25;100.00
23867;BME280;12114;53.404;-1.502;2023-09-30T04:10:41;101582.72;;;11.14;100.00
23867;BME280;12114;53.404;-1.502;2023-09-30T04:13:27;101591.34;;;11.21;100.00
23867;BME280;12114;53.404;-1.502;2023-09-30T04:16:11;101587.28;;;11.18;100.00
23867;BME280;12114;53.404;-1.502;2023-09-30T04:18:55;101596.91;;;11.21;100.00
23867;BME280;12114;53.404;-1.502;2023-09-30T04:21:39;101592.66;;;11.23;100.00
23867;BME280;12114;53.404;-1.502;2023-09-30T04:24:23;101599.19;;;11.27;100.00
23867;BME280;12114;53.404;-1.502;2023-09-30T04:27:07;101606.88;;;11.30;100.00
23867;BME280;12114;53.404;-1.502;2023-09-30T04:29:51;101604.41;;;11.29;100.00
23867;BME280;12114;53.404;-1.502;2023-09-30T04:32:35;101595.59;;;11.27;100.00
23867;BME280;12114;53.404;-1.502;2023-09-30T04:35:20;101599.34;;;11.22;100.00
23867;BME280;12114;53.404;-1.502;2023-09-30T04:38:05;101593.16;;;11.17;100.00
23867;BME280;12114;53.404;-1.502;2023-09-30T04:40:49;101592.84;;;11.10;100.00
23867;BME280;12114;53.404;-1.502;2023-09-30T04:43:35;101594.97;;;11.13;100.00
23867;BME280;12114;53.404;-1.502;2023-09-30T04:46:22;101592.19;;;11.13;100.00
23867;BME280;12114;53.404;-1.502;2023-09-30T04:49:07;101594.50;;;11.11;100.00
23867;BME280;12114;53.404;-1.502;2023-09-30T04:51:51;101590.44;;;11.08;100.00
23867;BME280;12114;53.404;-1.502;2023-09-30T04:54:36;101588.94;;;11.11;100.00
23867;BME280;12114;53.404;-1.502;2023-09-30T04:57:20;101589.13;;;11.06;100.00
23867;BME280;12114;53.404;-1.502;2023-09-30T05:00:06;101580.78;;;11.06;100.00
23867;BME280;12114;53.404;-1.502;2023-09-30T05:02:55;101562.94;;;11.07;100.00
23867;BME280;12114;53.404;-1.502;2023-09-30T05:05:39;101561.94;;;11.11;100.00
23867;BME280;12114;53.404;-1.502;2023-09-30T05:08:24;101578.59;;;11.20;100.00
23867;BME280;12114;53.404;-1.502;2023-09-30T05:11:08;101579.06;;;11.22;100.00
23867;BME280;12114;53.404;-1.502;2023-09-30T05:13:52;101587.75;;;11.20;100.00
23867;BME280;12114;53.404;-1.502;2023-09-30T05:16:36;101581.72;;;11.18;100.00
23867;BME280;12114;53.404;-1.502;2023-09-30T05:19:20;101588.06;;;11.19;100.00
23867;BME280;12114;53.404;-1.502;2023-09-30T05:22:04;101594.13;;;11.21;100.00
23867;BME280;12114;53.404;-1.502;2023-09-30T05:24:52;101605.13;;;11.17;100.00
23867;BME280;12114;53.404;-1.502;2023-09-30T05:27:36;101606.44;;;11.11;100.00
23867;BME280;12114;53.404;-1.502;2023-09-30T05:30:21;101610.72;;;11.09;100.00
23867;BME280;12114;53.404;-1.502;2023-09-30T05:33:05;101611.38;;;11.06;100.00
23867;BME280;12114;53.404;-1.502;2023-09-30T05:35:49;101611.03;;;11.07;100.00
23867;BME280;12114;53.404;-1.502;2023-09-30T05:38:34;101616.59;;;11.07;100.00
23867;BME280;12114;53.404;-1.502;2023-09-30T05:41:18;101613.66;;;11.04;100.00
23867;BME280;12114;53.404;-1.502;2023-09-30T05:44:04;101604.84;;;11.02;100.00
23867;BME280;12114;53.404;-1.502;2023-09-30T05:46:49;101596.38;;;10.89;100.00
23867;BME280;12114;53.404;-1.502;2023-09-30T05:49:34;101586.94;;;10.82;100.00
23867;BME280;12114;53.404;-1.502;2023-09-30T05:52:18;101586.63;;;10.75;100.00
23867;BME280;12114;53.404;-1.502;2023-09-30T05:55:03;101585.66;;;10.71;100.00
23867;BME280;12114;53.404;-1.502;2023-09-30T05:57:50;101582.38;;;10.77;100.00
23867;BME280;12114;53.404;-1.502;2023-09-30T06:00:35;101584.34;;;10.68;100.00
23867;BME280;12114;53.404;-1.502;2023-09-30T06:03:19;101581.91;;;10.67;100.00
23867;BME280;12114;53.404;-1.502;2023-09-30T06:06:11;101577.00;;;10.72;100.00
23867;BME280;12114;53.404;-1.502;2023-09-30T06:08:57;101577.16;;;10.67;100.00
23867;BME280;12114;53.404;-1.502;2023-09-30T06:11:42;101584.03;;;10.61;100.00
23867;BME280;12114;53.404;-1.502;2023-09-30T06:14:26;101581.75;;;10.63;100.00
23867;BME280;12114;53.404;-1.502;2023-09-30T06:17:11;101576.03;;;10.60;100.00
23867;BME280;12114;53.404;-1.502;2023-09-30T06:19:55;101588.81;;;10.61;100.00
23867;BME280;12114;53.404;-1.502;2023-09-30T06:22:39;101591.59;;;10.61;100.00
23867;BME280;12114;53.404;-1.502;2023-09-30T06:25:23;101608.56;;;10.59;100.00
23867;BME280;12114;53.404;-1.502;2023-09-30T06:28:08;101611.19;;;10.56;100.00
23867;BME280;12114;53.404;-1.502;2023-09-30T06:30:52;101617.56;;;10.56;100.00
23867;BME280;12114;53.404;-1.502;2023-09-30T06:33:37;101625.22;;;10.68;100.00
23867;BME280;12114;53.404;-1.502;2023-09-30T06:36:24;101624.41;;;10.76;100.00
23867;BME280;12114;53.404;-1.502;2023-09-30T06:39:08;101632.56;;;10.81;100.00
23867;BME280;12114;53.404;-1.502;2023-09-30T06:41:52;101630.09;;;10.88;100.00
23867;BME280;12114;53.404;-1.502;2023-09-30T06:44:36;101636.75;;;10.95;100.00
23867;BME280;12114;53.404;-1.502;2023-09-30T06:47:20;101650.63;;;11.04;100.00
23867;BME280;12114;53.404;-1.502;2023-09-30T06:50:08;101658.13;;;11.21;100.00
23867;BME280;12114;53.404;-1.502;2023-09-30T06:52:52;101660.66;;;11.34;100.00
23867;BME280;12114;53.404;-1.502;2023-09-30T06:55:39;101669.09;;;11.55;100.00
23867;BME280;12114;53.404;-1.502;2023-09-30T06:58:23;101665.63;;;11.58;100.00
23867;BME280;12114;53.404;-1.502;2023-09-30T07:01:07;101667.88;;;11.65;100.00
23867;BME280;12114;53.404;-1.502;2023-09-30T07:03:51;101672.00;;;11.67;100.00
23867;BME280;12114;53.404;-1.502;2023-09-30T07:06:35;101662.78;;;11.75;100.00
23867;BME280;12114;53.404;-1.502;2023-09-30T07:09:19;101659.28;;;11.87;100.00
23867;BME280;12114;53.404;-1.502;2023-09-30T07:12:04;101655.28;;;11.96;100.00
23867;BME280;12114;53.404;-1.502;2023-09-30T07:14:48;101653.59;;;12.04;100.00
23867;BME280;12114;53.404;-1.502;2023-09-30T07:17:33;101651.22;;;12.15;100.00
23867;BME280;12114;53.404;-1.502;2023-09-30T07:20:18;101653.47;;;12.21;100.00
23867;BME280;12114;53.404;-1.502;2023-09-30T07:23:03;101649.09;;;12.32;100.00
23867;BME280;12114;53.404;-1.502;2023-09-30T07:25:47;101650.13;;;12.48;100.00
23867;BME280;12114;53.404;-1.502;2023-09-30T07:28:32;101647.63;;;12.68;100.00
23867;BME280;12114;53.404;-1.502;2023-09-30T07:31:16;101647.78;;;12.83;100.00
23867;BME280;12114;53.404;-1.502;2023-09-30T07:34:00;101639.72;;;13.02;100.00
23867;BME280;12114;53.404;-1.502;2023-09-30T07:36:46;101637.09;;;13.18;100.00
23867;BME280;12114;53.404;-1.502;2023-09-30T07:39:29;101633.03;;;13.28;100.00
23867;BME280;12114;53.404;-1.502;2023-09-30T07:42:15;101625.00;;;13.38;100.00
23867;BME280;12114;53.404;-1.502;2023-09-30T07:45:01;101628.28;;;13.40;100.00
23867;BME280;12114;53.404;-1.502;2023-09-30T07:47:45;101651.91;;;13.43;100.00
23867;BME280;12114;53.404;-1.502;2023-09-30T07:50:30;101644.22;;;13.52;100.00
23867;BME280;12114;53.404;-1.502;2023-09-30T07:53:14;101639.22;;;13.57;100.00
23867;BME280;12114;53.404;-1.502;2023-09-30T07:55:58;101648.03;;;13.72;100.00
23867;BME280;12114;53.404;-1.502;2023-09-30T07:58:42;101648.72;;;13.81;100.00
23867;BME280;12114;53.404;-1.502;2023-09-30T08:01:26;101642.09;;;13.85;100.00
23867;BME280;12114;53.404;-1.502;2023-09-30T08:04:10;101649.66;;;13.97;100.00
23867;BME280;12114;53.404;-1.502;2023-09-30T08:06:54;101655.22;;;14.09;100.00
23867;BME280;12114;53.404;-1.502;2023-09-30T08:09:38;101641.19;;;14.21;100.00
23867;BME280;12114;53.404;-1.502;2023-09-30T08:12:22;101629.03;;;14.29;100.00
23867;BME280;12114;53.404;-1.502;2023-09-30T08:15:07;101623.81;;;14.40;100.00
23867;BME280;12114;53.404;-1.502;2023-09-30T08:17:51;101612.75;;;14.31;100.00
23867;BME280;12114;53.404;-1.502;2023-09-30T08:20:35;101621.28;;;14.35;100.00
23867;BME280;12114;53.404;-1.502;2023-09-30T08:23:20;101610.66;;;14.40;100.00
23867;BME280;12114;53.404;-1.502;2023-09-30T08:26:05;101621.50;;;14.57;100.00
23867;BME280;12114;53.404;-1.502;2023-09-30T08:28:50;101617.94;;;14.72;100.00
23867;BME280;12114;53.404;-1.502;2023-09-30T08:31:34;101613.63;;;14.91;100.00
23867;BME280;12114;53.404;-1.502;2023-09-30T08:34:18;101621.78;;;15.11;100.00
23867;BME280;12114;53.404;-1.502;2023-09-30T08:37:04;101607.16;;;15.33;100.00
23867;BME280;12114;53.404;-1.502;2023-09-30T08:39:49;101599.69;;;15.53;100.00
23867;BME280;12114;53.404;-1.502;2023-09-30T08:42:33;101594.63;;;15.78;100.00
23867;BME280;12114;53.404;-1.502;2023-09-30T08:45:18;101594.06;;;15.88;100.00
23867;BME280;12114;53.404;-1.502;2023-09-30T08:48:03;101590.78;;;16.02;100.00
23867;BME280;12114;53.404;-1.502;2023-09-30T08:50:50;101590.03;;;16.05;100.00
23867;BME280;12114;53.404;-1.502;2023-09-30T08:53:35;101594.00;;;16.04;100.00
23867;BME280;12114;53.404;-1.502;2023-09-30T08:56:28;101578.88;;;16.08;100.00
23867;BME280;12114;53.404;-1.502;2023-09-30T08:59:12;101585.38;;;16.12;100.00
23867;BME280;12114;53.404;-1.502;2023-09-30T09:01:57;101592.84;;;16.24;100.00
23867;BME280;12114;53.404;-1.502;2023-09-30T09:04:42;101583.53;;;16.39;100.00
23867;BME280;12114;53.404;-1.502;2023-09-30T09:07:27;101581.22;;;16.45;100.00
23867;BME280;12114;53.404;-1.502;2023-09-30T09:10:12;101570.00;;;16.45;100.00
23867;BME280;12114;53.404;-1.502;2023-09-30T09:12:59;101567.50;;;16.39;100.00
23867;BME280;12114;53.404;-1.502;2023-09-30T09:15:43;101566.91;;;16.50;100.00
23867;BME280;12114;53.404;-1.502;2023-09-30T09:18:31;101564.41;;;16.64;100.00
23867;BME280;12114;53.404;-1.502;2023-09-30T09:21:21;101579.56;;;16.59;100.00
23867;BME280;12114;53.404;-1.502;2023-09-30T09:24:07;101591.28;;;16.65;100.00
23867;BME280;12114;53.404;-1.502;2023-09-30T09:26:51;101584.75;;;16.80;100.00
23867;BME280;12114;53.404;-1.502;2023-09-30T09:29:36;101577.47;;;16.98;100.00
23867;BME280;12114;53.404;-1.502;2023-09-30T09:32:20;101572.00;;;17.05;100.00
23867;BME280;12114;53.404;-1.502;2023-09-30T09:35:04;101569.84;;;17.21;100.00
23867;BME280;12114;53.404;-1.502;2023-09-30T09:40:40;101590.00;;;17.27;100.00
23867;BME280;12114;53.404;-1.502;2023-09-30T09:43:24;101587.91;;;17.46;100.00
23867;BME280;12114;53.404;-1.502;2023-09-30T09:46:08;101588.16;;;17.61;100.00
23867;BME280;12114;53.404;-1.502;2023-09-30T09:48:53;101597.44;;;17.91;100.00
23867;BME280;12114;53.404;-1.502;2023-09-30T09:51:38;101596.38;;;18.02;100.00
23867;BME280;12114;53.404;-1.502;2023-09-30T09:54:23;101579.31;;;18.18;100.00
23867;BME280;12114;53.404;-1.502;2023-09-30T09:57:09;101597.03;;;18.19;100.00
23867;BME280;12114;53.404;-1.502;2023-09-30T09:59:54;101583.50;;;18.31;100.00
23867;BME280;12114;53.404;-1.502;2023-09-30T10:02:40;101574.72;;;18.33;100.00
23867;BME280;12114;53.404;-1.502;2023-09-30T10:05:25;101570.00;;;18.44;100.00
23867;BME280;12114;53.404;-1.502;2023-09-30T10:08:14;101563.91;;;18.38;100.00
23867;BME280;12114;53.404;-1.502;2023-09-30T10:11:01;101565.09;;;18.37;100.00
23867;BME280;12114;53.404;-1.502;2023-09-30T10:13:58;101559.88;;;18.36;100.00
23867;BME280;12114;53.404;-1.502;2023-09-30T10:16:47;101559.50;;;18.08;100.00
23867;BME280;12114;53.404;-1.502;2023-09-30T10:19:32;101555.22;;;18.17;100.00
23867;BME280;12114;53.404;-1.502;2023-09-30T10:25:34;101557.13;;;18.10;100.00
23867;BME280;12114;53.404;-1.502;2023-09-30T10:28:45;101555.50;;;18.09;100.00
23867;BME280;12114;53.404;-1.502;2023-09-30T10:31:30;101560.94;;;17.94;100.00
23867;BME280;12114;53.404;-1.502;2023-09-30T10:34:19;101549.63;;;17.91;100.00
23867;BME280;12114;53.404;-1.502;2023-09-30T10:37:20;101545.75;;;18.02;100.00
23867;BME280;12114;53.404;-1.502;2023-09-30T10:40:04;101536.97;;;18.04;100.00
23867;BME280;12114;53.404;-1.502;2023-09-30T10:42:51;101534.19;;;18.08;100.00
23867;BME280;12114;53.404;-1.502;2023-09-30T10:51:20;101526.53;;;17.75;100.00
23867;BME280;12114;53.404;-1.502;2023-09-30T10:54:07;101525.75;;;17.52;100.00
23867;BME280;12114;53.404;-1.502;2023-09-30T10:56:52;101525.41;;;17.53;100.00
23867;BME280;12114;53.404;-1.502;2023-09-30T10:59:39;101532.81;;;17.65;100.00
23867;BME280;12114;53.404;-1.502;2023-09-30T11:02:23;101539.00;;;17.51;100.00
23867;BME280;12114;53.404;-1.502;2023-09-30T11:05:10;101533.16;;;17.60;100.00
23867;BME280;12114;53.404;-1.502;2023-09-30T11:07:57;101528.56;;;17.52;100.00
23867;BME280;12114;53.404;-1.502;2023-09-30T11:10:49;101527.72;;;17.47;100.00
23867;BME280;12114;53.404;-1.502;2023-09-30T11:13:36;101525.41;;;17.53;100.00
23867;BME280;12114;53.404;-1.502;2023-09-30T11:16:20;101522.34;;;17.62;100.00
23867;BME280;12114;53.404;-1.502;2023-09-30T11:19:04;101523.41;;;17.54;100.00
23867;BME280;12114;53.404;-1.502;2023-09-30T11:21:50;101517.72;;;17.50;100.00
23867;BME280;12114;53.404;-1.502;2023-09-30T11:24:35;101509.09;;;17.62;100.00
23867;BME280;12114;53.404;-1.502;2023-09-30T11:27:23;101505.19;;;17.70;100.00
23867;BME280;12114;53.404;-1.502;2023-09-30T11:30:11;101494.28;;;17.65;100.00
23867;BME280;12114;53.404;-1.502;2023-09-30T11:32:59;101488.66;;;17.65;100.00
23867;BME280;12114;53.404;-1.502;2023-09-30T11:36:04;101494.44;;;17.79;100.00
23867;BME280;12114;53.404;-1.502;2023-09-30T11:38:51;101484.72;;;17.73;100.00
23867;BME280;12114;53.404;-1.502;2023-09-30T11:41:40;101460.28;;;17.77;100.00
23867;BME280;12114;53.404;-1.502;2023-09-30T11:44:25;101470.16;;;17.64;100.00
23867;BME280;12114;53.404;-1.502;2023-09-30T11:47:14;101473.44;;;17.70;100.00
23867;BME280;12114;53.404;-1.502;2023-09-30T11:49:59;101475.44;;;17.69;100.00
23867;BME280;12114;53.404;-1.502;2023-09-30T11:52:46;101480.75;;;17.74;100.00
23867;BME280;12114;53.404;-1.502;2023-09-30T11:55:30;101479.47;;;17.68;100.00
23867;BME280;12114;53.404;-1.502;2023-09-30T11:58:14;101477.34;;;17.62;100.00
23867;BME280;12114;53.404;-1.502;2023-09-30T12:01:02;101482.16;;;17.61;100.00
23867;BME280;12114;53.404;-1.502;2023-09-30T12:03:46;101481.03;;;17.66;100.00
23867;BME280;12114;53.404;-1.502;2023-09-30T12:06:31;101473.50;;;17.73;100.00
23867;BME280;12114;53.404;-1.502;2023-09-30T12:09:16;101471.53;;;17.77;100.00
23867;BME280;12114;53.404;-1.502;2023-09-30T12:12:01;101462.41;;;17.84;100.00
23867;BME280;12114;53.404;-1.502;2023-09-30T12:14:45;101460.72;;;17.79;100.00
23867;BME280;12114;53.404;-1.502;2023-09-30T12:17:30;101467.53;;;17.78;100.00
23867;BME280;12114;53.404;-1.502;2023-09-30T12:20:13;101472.31;;;17.74;100.00
23867;BME280;12114;53.404;-1.502;2023-09-30T12:23:01;101475.78;;;17.64;100.00
23867;BME280;12114;53.404;-1.502;2023-09-30T12:25:49;101469.56;;;17.52;100.00
23867;BME280;12114;53.404;-1.502;2023-09-30T12:28:33;101465.16;;;17.54;100.00
23867;BME280;12114;53.404;-1.502;2023-09-30T12:31:17;101461.00;;;17.41;100.00
23867;BME280;12114;53.404;-1.502;2023-09-30T12:34:02;101452.88;;;17.36;100.00
23867;BME280;12114;53.404;-1.502;2023-09-30T12:36:48;101458.19;;;17.41;100.00
23867;BME280;12114;53.404;-1.502;2023-09-30T12:39:33;101462.22;;;17.43;100.00
23867;BME280;12114;53.404;-1.502;2023-09-30T12:42:17;101452.56;;;17.41;100.00
23867;BME280;12114;53.404;-1.502;2023-09-30T12:45:01;101458.66;;;17.46;100.00
23867;BME280;12114;53.404;-1.502;2023-09-30T12:47:46;101448.59;;;17.45;100.00
23867;BME280;12114;53.404;-1.502;2023-09-30T12:50:31;101456.50;;;17.36;100.00
23867;BME280;12114;53.404;-1.502;2023-09-30T12:53:16;101452.56;;;17.41;100.00
23867;BME280;12114;53.404;-1.502;2023-09-30T12:56:00;101467.66;;;17.29;100.00
23867;BME280;12114;53.404;-1.502;2023-09-30T12:58:44;101464.03;;;17.29;100.00
23867;BME280;12114;53.404;-1.502;2023-09-30T13:01:28;101459.16;;;17.26;100.00
23867;BME280;12114;53.404;-1.502;2023-09-30T13:04:12;101462.69;;;17.19;100.00
23867;BME280;12114;53.404;-1.502;2023-09-30T13:06:56;101459.38;;;17.14;100.00
23867;BME280;12114;53.404;-1.502;2023-09-30T13:09:42;101450.03;;;17.06;100.00
23867;BME280;12114;53.404;-1.502;2023-09-30T13:12:26;101458.66;;;16.94;100.00
23867;BME280;12114;53.404;-1.502;2023-09-30T13:15:11;101458.88;;;16.82;100.00
23867;BME280;12114;53.404;-1.502;2023-09-30T13:17:55;101464.47;;;16.82;100.00
23867;BME280;12114;53.404;-1.502;2023-09-30T13:20:38;101458.88;;;16.82;100.00
23867;BME280;12114;53.404;-1.502;2023-09-30T13:23:23;101451.75;;;16.88;100.00
23867;BME280;12114;53.404;-1.502;2023-09-30T13:26:07;101447.44;;;16.94;100.00
23867;BME280;12114;53.404;-1.502;2023-09-30T13:28:51;101437.56;;;16.77;100.00
23867;BME280;12114;53.404;-1.502;2023-09-30T13:31:35;101433.47;;;16.75;100.00
23867;BME280;12114;53.404;-1.502;2023-09-30T13:34:21;101421.97;;;16.80;100.00
23867;BME280;12114;53.404;-1.502;2023-09-30T13:37:06;101403.47;;;16.79;100.00
23867;BME280;12114;53.404;-1.502;2023-09-30T13:39:50;101408.13;;;16.94;100.00
23867;BME280;12114;53.404;-1.502;2023-09-30T13:42:34;101411.41;;;17.00;100.00
23867;BME280;12114;53.404;-1.502;2023-09-30T13:45:18;101400.25;;;17.03;100.00
23867;BME280;12114;53.404;-1.502;2023-09-30T13:48:03;101403.00;;;17.00;100.00
23867;BME280;12114;53.404;-1.502;2023-09-30T13:50:48;101406.34;;;16.82;100.00
23867;BME280;12114;53.404;-1.502;2023-09-30T13:53:32;101404.63;;;16.74;100.00
23867;BME280;12114;53.404;-1.502;2023-09-30T13:56:16;101390.09;;;16.69;100.00
23867;BME280;12114;53.404;-1.502;2023-09-30T13:59:01;101401.75;;;16.71;100.00
23867;BME280;12114;53.404;-1.502;2023-09-30T14:01:45;101406.81;;;16.62;100.00
23867;BME280;12114;53.404;-1.502;2023-09-30T14:04:30;101394.91;;;16.46;100.00
23867;BME280;12114;53.404;-1.502;2023-09-30T14:07:15;101395.84;;;16.30;100.00
23867;BME280;12114;53.404;-1.502;2023-09-30T14:10:03;101400.47;;;16.19;100.00
23867;BME280;12114;53.404;-1.502;2023-09-30T14:12:47;101400.81;;;16.18;100.00